aviador You're here:

KESC Decoded Metar

ESCANABA in MI, USA
Report Time2018-01-22 00:56:00
UTC Time2018-01-22 01:58:40
Flight Rules vfr VFR
Wind020° at 06 kt
W.Decomp.*RWY 36: 5.5 kt HW 2.3 kt RCW
RWY 09: 2.3 kt HW 5.5 kt LCW
W.Rank020° ranks 25
Current wind is below 020° avg. (6.5)
Visibility9999 m
Phenomena:N/A
Clouds:Overcast 085 Hf
Expected CloudBase > 1,200 ft AGL from Temp-Dew spread
Ceiling8,500 ft
Temp02°C (ISA -12)
Dew Point-1°C (81% RH)
AAT-2.3°C
QNH1017 hPa
Density Alt-873 ft
Elevation614 ft
Report Wrong Elevation
Raw Report
KESC 220056Z AUTO 02006KT 10SM OVC085 02/M01 A3002 RMK AO2 SLP194
T00221006 FZRANO=

Extra information for KESC:More info

Metar Taf Metar & Taf Last 4 Metars F.Rules Stats Wind Profile Meteogram Temp Stats Airport Information Weather charts Add Link Nearby VenuesMetar ALERT Operation Metar Decoded Social comments

AIRNAV info for KESC